sensor_id;sensor_type;location;lat;lon;timestamp;P1;durP1;ratioP1;P2;durP2;ratioP2
19812;SDS011;10066;48.108;11.448;2023-05-29T00:01:09;12.90;;;8.20;;
19812;SDS011;10066;48.108;11.448;2023-05-29T00:03:36;11.70;;;7.97;;
19812;SDS011;10066;48.108;11.448;2023-05-29T00:06:03;15.97;;;7.93;;
19812;SDS011;10066;48.108;11.448;2023-05-29T00:08:32;12.10;;;8.20;;
19812;SDS011;10066;48.108;11.448;2023-05-29T00:10:59;11.47;;;8.33;;
19812;SDS011;10066;48.108;11.448;2023-05-29T00:13:26;14.43;;;8.37;;
19812;SDS011;10066;48.108;11.448;2023-05-29T00:15:53;13.77;;;7.53;;
19812;SDS011;10066;48.108;11.448;2023-05-29T00:18:20;11.87;;;8.07;;
19812;SDS011;10066;48.108;11.448;2023-05-29T00:20:47;14.33;;;8.43;;
19812;SDS011;10066;48.108;11.448;2023-05-29T00:23:14;11.13;;;7.50;;
19812;SDS011;10066;48.108;11.448;2023-05-29T00:25:43;14.23;;;8.33;;
19812;SDS011;10066;48.108;11.448;2023-05-29T00:28:10;11.20;;;7.17;;
19812;SDS011;10066;48.108;11.448;2023-05-29T00:30:37;12.10;;;7.50;;
19812;SDS011;10066;48.108;11.448;2023-05-29T00:33:05;15.43;;;8.30;;
19812;SDS011;10066;48.108;11.448;2023-05-29T00:35:33;13.80;;;7.07;;
19812;SDS011;10066;48.108;11.448;2023-05-29T00:38:00;11.33;;;7.43;;
19812;SDS011;10066;48.108;11.448;2023-05-29T00:40:27;12.37;;;7.30;;
19812;SDS011;10066;48.108;11.448;2023-05-29T00:42:55;13.17;;;7.33;;
19812;SDS011;10066;48.108;11.448;2023-05-29T00:45:22;12.60;;;7.17;;
19812;SDS011;10066;48.108;11.448;2023-05-29T00:47:49;10.73;;;6.90;;
19812;SDS011;10066;48.108;11.448;2023-05-29T00:50:16;10.33;;;6.60;;
19812;SDS011;10066;48.108;11.448;2023-05-29T00:52:43;9.93;;;6.90;;
19812;SDS011;10066;48.108;11.448;2023-05-29T00:55:11;13.73;;;7.70;;
19812;SDS011;10066;48.108;11.448;2023-05-29T00:57:39;10.97;;;7.40;;
19812;SDS011;10066;48.108;11.448;2023-05-29T01:00:09;11.73;;;6.37;;
19812;SDS011;10066;48.108;11.448;2023-05-29T01:02:39;11.53;;;6.50;;
19812;SDS011;10066;48.108;11.448;2023-05-29T01:05:09;11.43;;;6.37;;
19812;SDS011;10066;48.108;11.448;2023-05-29T01:07:37;11.30;;;6.63;;
19812;SDS011;10066;48.108;11.448;2023-05-29T01:10:04;11.93;;;7.00;;
19812;SDS011;10066;48.108;11.448;2023-05-29T01:12:34;9.17;;;6.10;;
19812;SDS011;10066;48.108;11.448;2023-05-29T01:15:10;14.13;;;6.77;;
19812;SDS011;10066;48.108;11.448;2023-05-29T01:17:54;9.57;;;5.97;;
19812;SDS011;10066;48.108;11.448;2023-05-29T01:20:38;9.93;;;5.83;;
19812;SDS011;10066;48.108;11.448;2023-05-29T01:23:14;8.63;;;6.03;;
19812;SDS011;10066;48.108;11.448;2023-05-29T01:26:07;11.10;;;6.77;;
19812;SDS011;10066;48.108;11.448;2023-05-29T01:28:47;9.97;;;6.70;;
19812;SDS011;10066;48.108;11.448;2023-05-29T01:31:18;13.23;;;6.97;;
19812;SDS011;10066;48.108;11.448;2023-05-29T01:33:51;11.10;;;6.33;;
19812;SDS011;10066;48.108;11.448;2023-05-29T01:36:18;11.20;;;6.50;;
19812;SDS011;10066;48.108;11.448;2023-05-29T01:38:45;8.80;;;6.03;;
19812;SDS011;10066;48.108;11.448;2023-05-29T01:41:13;13.13;;;5.93;;
19812;SDS011;10066;48.108;11.448;2023-05-29T01:43:41;9.43;;;5.87;;
19812;SDS011;10066;48.108;11.448;2023-05-29T01:46:11;10.00;;;5.83;;
19812;SDS011;10066;48.108;11.448;2023-05-29T01:48:38;9.00;;;5.83;;
19812;SDS011;10066;48.108;11.448;2023-05-29T01:51:07;11.00;;;6.17;;
19812;SDS011;10066;48.108;11.448;2023-05-29T01:53:34;10.90;;;6.23;;
19812;SDS011;10066;48.108;11.448;2023-05-29T01:56:01;11.47;;;5.97;;
19812;SDS011;10066;48.108;11.448;2023-05-29T01:58:29;10.73;;;6.03;;
19812;SDS011;10066;48.108;11.448;2023-05-29T02:00:57;7.80;;;5.80;;
19812;SDS011;10066;48.108;11.448;2023-05-29T02:03:25;10.67;;;5.63;;
19812;SDS011;10066;48.108;11.448;2023-05-29T02:05:54;8.03;;;5.80;;
19812;SDS011;10066;48.108;11.448;2023-05-29T02:08:21;10.90;;;5.90;;
19812;SDS011;10066;48.108;11.448;2023-05-29T02:10:48;9.20;;;5.83;;
19812;SDS011;10066;48.108;11.448;2023-05-29T02:13:15;8.10;;;5.50;;
19812;SDS011;10066;48.108;11.448;2023-05-29T02:15:43;7.40;;;5.37;;
19812;SDS011;10066;48.108;11.448;2023-05-29T02:18:10;9.50;;;5.60;;
19812;SDS011;10066;48.108;11.448;2023-05-29T02:20:41;10.10;;;5.57;;
19812;SDS011;10066;48.108;11.448;2023-05-29T02:23:09;10.87;;;5.20;;
19812;SDS011;10066;48.108;11.448;2023-05-29T02:25:37;7.30;;;5.23;;
19812;SDS011;10066;48.108;11.448;2023-05-29T02:28:05;8.20;;;4.93;;
19812;SDS011;10066;48.108;11.448;2023-05-29T02:30:32;6.80;;;4.80;;
19812;SDS011;10066;48.108;11.448;2023-05-29T02:33:00;8.33;;;4.53;;
19812;SDS011;10066;48.108;11.448;2023-05-29T02:35:27;7.77;;;4.87;;
19812;SDS011;10066;48.108;11.448;2023-05-29T02:37:55;8.77;;;4.90;;
19812;SDS011;10066;48.108;11.448;2023-05-29T02:40:22;7.77;;;4.80;;
19812;SDS011;10066;48.108;11.448;2023-05-29T02:42:49;9.80;;;5.07;;
19812;SDS011;10066;48.108;11.448;2023-05-29T02:45:16;9.33;;;5.03;;
19812;SDS011;10066;48.108;11.448;2023-05-29T02:47:43;8.13;;;4.43;;
19812;SDS011;10066;48.108;11.448;2023-05-29T02:50:11;8.17;;;4.97;;
19812;SDS011;10066;48.108;11.448;2023-05-29T02:52:39;7.27;;;4.97;;
19812;SDS011;10066;48.108;11.448;2023-05-29T02:55:08;9.07;;;5.50;;
19812;SDS011;10066;48.108;11.448;2023-05-29T02:57:35;8.30;;;5.10;;
19812;SDS011;10066;48.108;11.448;2023-05-29T03:00:02;9.43;;;5.20;;
19812;SDS011;10066;48.108;11.448;2023-05-29T03:02:33;8.30;;;5.00;;
19812;SDS011;10066;48.108;11.448;2023-05-29T03:05:01;10.00;;;5.53;;
19812;SDS011;10066;48.108;11.448;2023-05-29T03:07:29;6.17;;;4.40;;
19812;SDS011;10066;48.108;11.448;2023-05-29T03:09:57;7.30;;;4.97;;
19812;SDS011;10066;48.108;11.448;2023-05-29T03:12:27;7.53;;;4.50;;
19812;SDS011;10066;48.108;11.448;2023-05-29T03:14:54;8.00;;;5.10;;
19812;SDS011;10066;48.108;11.448;2023-05-29T03:17:22;7.80;;;5.00;;
19812;SDS011;10066;48.108;11.448;2023-05-29T03:19:49;8.13;;;4.23;;
19812;SDS011;10066;48.108;11.448;2023-05-29T03:22:17;8.53;;;4.90;;
19812;SDS011;10066;48.108;11.448;2023-05-29T03:24:44;8.57;;;4.83;;
19812;SDS011;10066;48.108;11.448;2023-05-29T03:27:10;6.70;;;4.67;;
19812;SDS011;10066;48.108;11.448;2023-05-29T03:29:39;6.60;;;4.70;;
19812;SDS011;10066;48.108;11.448;2023-05-29T03:32:06;7.40;;;5.00;;
19812;SDS011;10066;48.108;11.448;2023-05-29T03:34:33;8.60;;;4.80;;
19812;SDS011;10066;48.108;11.448;2023-05-29T03:37:00;8.20;;;4.87;;
19812;SDS011;10066;48.108;11.448;2023-05-29T03:39:27;7.77;;;4.53;;
19812;SDS011;10066;48.108;11.448;2023-05-29T03:41:54;7.67;;;5.07;;
19812;SDS011;10066;48.108;11.448;2023-05-29T03:44:22;6.83;;;4.50;;
19812;SDS011;10066;48.108;11.448;2023-05-29T03:46:51;9.37;;;4.70;;
19812;SDS011;10066;48.108;11.448;2023-05-29T03:49:18;8.73;;;5.23;;
19812;SDS011;10066;48.108;11.448;2023-05-29T03:51:45;8.87;;;4.90;;
19812;SDS011;10066;48.108;11.448;2023-05-29T03:54:12;6.37;;;4.53;;
19812;SDS011;10066;48.108;11.448;2023-05-29T03:56:39;7.27;;;4.90;;
19812;SDS011;10066;48.108;11.448;2023-05-29T03:59:06;6.80;;;4.70;;
19812;SDS011;10066;48.108;11.448;2023-05-29T04:01:33;6.60;;;4.30;;
19812;SDS011;10066;48.108;11.448;2023-05-29T04:04:02;7.33;;;4.97;;
19812;SDS011;10066;48.108;11.448;2023-05-29T04:06:29;6.77;;;4.60;;
19812;SDS011;10066;48.108;11.448;2023-05-29T04:08:57;7.87;;;4.37;;
19812;SDS011;10066;48.108;11.448;2023-05-29T04:11:23;9.47;;;4.90;;
19812;SDS011;10066;48.108;11.448;2023-05-29T04:13:50;7.20;;;4.67;;
19812;SDS011;10066;48.108;11.448;2023-05-29T04:16:17;7.57;;;4.33;;
19812;SDS011;10066;48.108;11.448;2023-05-29T04:18:45;7.03;;;4.40;;
19812;SDS011;10066;48.108;11.448;2023-05-29T04:21:13;8.57;;;4.67;;
19812;SDS011;10066;48.108;11.448;2023-05-29T04:23:40;6.13;;;4.30;;
19812;SDS011;10066;48.108;11.448;2023-05-29T04:26:07;7.40;;;4.63;;
19812;SDS011;10066;48.108;11.448;2023-05-29T04:28:35;9.57;;;4.93;;
19812;SDS011;10066;48.108;11.448;2023-05-29T04:31:03;5.67;;;4.40;;
19812;SDS011;10066;48.108;11.448;2023-05-29T04:33:34;6.00;;;4.77;;
19812;SDS011;10066;48.108;11.448;2023-05-29T04:36:01;6.27;;;4.50;;
19812;SDS011;10066;48.108;11.448;2023-05-29T04:38:30;6.00;;;4.40;;
19812;SDS011;10066;48.108;11.448;2023-05-29T04:40:57;7.23;;;4.90;;
19812;SDS011;10066;48.108;11.448;2023-05-29T04:43:25;9.67;;;5.40;;
19812;SDS011;10066;48.108;11.448;2023-05-29T04:45:52;9.07;;;5.10;;
19812;SDS011;10066;48.108;11.448;2023-05-29T04:48:19;6.43;;;4.67;;
19812;SDS011;10066;48.108;11.448;2023-05-29T04:50:46;9.27;;;5.23;;
19812;SDS011;10066;48.108;11.448;2023-05-29T04:53:13;8.10;;;5.10;;
19812;SDS011;10066;48.108;11.448;2023-05-29T04:55:42;8.23;;;5.60;;
19812;SDS011;10066;48.108;11.448;2023-05-29T04:58:09;8.60;;;6.10;;
19812;SDS011;10066;48.108;11.448;2023-05-29T05:00:37;11.70;;;5.40;;
19812;SDS011;10066;48.108;11.448;2023-05-29T05:03:04;9.90;;;5.63;;
19812;SDS011;10066;48.108;11.448;2023-05-29T05:05:31;9.27;;;4.90;;
19812;SDS011;10066;48.108;11.448;2023-05-29T05:07:58;7.37;;;5.23;;
19812;SDS011;10066;48.108;11.448;2023-05-29T05:10:25;8.83;;;5.53;;
19812;SDS011;10066;48.108;11.448;2023-05-29T05:12:53;8.53;;;6.30;;
19812;SDS011;10066;48.108;11.448;2023-05-29T05:15:20;9.17;;;6.33;;
19812;SDS011;10066;48.108;11.448;2023-05-29T05:17:47;8.80;;;6.30;;
19812;SDS011;10066;48.108;11.448;2023-05-29T05:20:14;10.60;;;6.63;;
19812;SDS011;10066;48.108;11.448;2023-05-29T05:22:41;9.20;;;5.97;;
19812;SDS011;10066;48.108;11.448;2023-05-29T05:25:08;10.63;;;6.10;;
19812;SDS011;10066;48.108;11.448;2023-05-29T05:27:35;9.40;;;6.03;;
19812;SDS011;10066;48.108;11.448;2023-05-29T05:30:04;9.13;;;6.17;;
19812;SDS011;10066;48.108;11.448;2023-05-29T05:32:31;9.80;;;6.13;;
19812;SDS011;10066;48.108;11.448;2023-05-29T05:34:59;10.83;;;6.70;;
19812;SDS011;10066;48.108;11.448;2023-05-29T05:37:26;9.33;;;5.50;;
19812;SDS011;10066;48.108;11.448;2023-05-29T05:39:53;9.60;;;5.87;;
19812;SDS011;10066;48.108;11.448;2023-05-29T05:42:22;12.00;;;6.37;;
19812;SDS011;10066;48.108;11.448;2023-05-29T05:44:49;9.37;;;5.73;;
19812;SDS011;10066;48.108;11.448;2023-05-29T05:47:18;11.60;;;6.10;;
19812;SDS011;10066;48.108;11.448;2023-05-29T05:49:45;9.13;;;5.93;;
19812;SDS011;10066;48.108;11.448;2023-05-29T05:52:11;9.73;;;5.80;;
19812;SDS011;10066;48.108;11.448;2023-05-29T05:54:38;9.33;;;5.80;;
19812;SDS011;10066;48.108;11.448;2023-05-29T05:57:06;8.60;;;5.27;;
19812;SDS011;10066;48.108;11.448;2023-05-29T05:59:32;6.33;;;4.87;;
19812;SDS011;10066;48.108;11.448;2023-05-29T06:01:59;8.17;;;5.30;;
19812;SDS011;10066;48.108;11.448;2023-05-29T06:04:28;9.07;;;5.30;;
19812;SDS011;10066;48.108;11.448;2023-05-29T06:06:55;7.57;;;4.90;;
19812;SDS011;10066;48.108;11.448;2023-05-29T06:09:22;9.03;;;5.57;;
19812;SDS011;10066;48.108;11.448;2023-05-29T06:11:50;10.27;;;5.77;;
19812;SDS011;10066;48.108;11.448;2023-05-29T06:14:17;7.07;;;5.23;;
19812;SDS011;10066;48.108;11.448;2023-05-29T06:16:44;9.70;;;5.57;;
19812;SDS011;10066;48.108;11.448;2023-05-29T06:19:11;10.53;;;5.00;;
19812;SDS011;10066;48.108;11.448;2023-05-29T06:21:41;9.27;;;5.70;;
19812;SDS011;10066;48.108;11.448;2023-05-29T06:24:08;8.20;;;5.10;;
19812;SDS011;10066;48.108;11.448;2023-05-29T06:26:35;8.60;;;5.43;;
19812;SDS011;10066;48.108;11.448;2023-05-29T06:29:02;8.97;;;5.00;;
19812;SDS011;10066;48.108;11.448;2023-05-29T06:31:31;9.47;;;4.70;;
19812;SDS011;10066;48.108;11.448;2023-05-29T06:33:59;9.23;;;4.90;;
19812;SDS011;10066;48.108;11.448;2023-05-29T06:36:26;9.17;;;5.10;;
19812;SDS011;10066;48.108;11.448;2023-05-29T06:38:54;6.83;;;4.80;;
19812;SDS011;10066;48.108;11.448;2023-05-29T06:41:21;6.73;;;4.10;;
19812;SDS011;10066;48.108;11.448;2023-05-29T06:43:48;6.17;;;4.90;;
19812;SDS011;10066;48.108;11.448;2023-05-29T06:46:15;6.33;;;4.87;;
19812;SDS011;10066;48.108;11.448;2023-05-29T06:48:42;9.80;;;4.93;;
19812;SDS011;10066;48.108;11.448;2023-05-29T06:51:09;9.27;;;4.60;;
19812;SDS011;10066;48.108;11.448;2023-05-29T06:53:36;7.57;;;4.53;;
19812;SDS011;10066;48.108;11.448;2023-05-29T06:56:05;7.97;;;4.30;;
19812;SDS011;10066;48.108;11.448;2023-05-29T06:58:32;7.73;;;4.40;;
19812;SDS011;10066;48.108;11.448;2023-05-29T07:00:59;5.87;;;4.10;;
19812;SDS011;10066;48.108;11.448;2023-05-29T07:03:26;10.27;;;5.30;;
19812;SDS011;10066;48.108;11.448;2023-05-29T07:05:54;7.10;;;4.57;;
19812;SDS011;10066;48.108;11.448;2023-05-29T07:08:21;9.00;;;5.13;;
19812;SDS011;10066;48.108;11.448;2023-05-29T07:10:49;7.53;;;4.93;;
19812;SDS011;10066;48.108;11.448;2023-05-29T07:13:17;8.90;;;4.93;;
19812;SDS011;10066;48.108;11.448;2023-05-29T07:15:44;9.20;;;5.40;;
19812;SDS011;10066;48.108;11.448;2023-05-29T07:18:11;6.77;;;4.97;;
19812;SDS011;10066;48.108;11.448;2023-05-29T07:20:38;10.30;;;5.03;;
19812;SDS011;10066;48.108;11.448;2023-05-29T07:23:08;7.90;;;4.63;;
19812;SDS011;10066;48.108;11.448;2023-05-29T07:25:35;8.17;;;5.00;;
19812;SDS011;10066;48.108;11.448;2023-05-29T07:28:02;7.87;;;4.60;;
19812;SDS011;10066;48.108;11.448;2023-05-29T07:30:30;8.23;;;4.83;;
19812;SDS011;10066;48.108;11.448;2023-05-29T07:32:57;6.47;;;4.73;;
19812;SDS011;10066;48.108;11.448;2023-05-29T07:35:25;9.87;;;4.80;;
19812;SDS011;10066;48.108;11.448;2023-05-29T07:37:51;8.60;;;4.87;;
19812;SDS011;10066;48.108;11.448;2023-05-29T07:40:19;7.57;;;5.20;;
19812;SDS011;10066;48.108;11.448;2023-05-29T07:42:46;8.27;;;4.50;;
19812;SDS011;10066;48.108;11.448;2023-05-29T07:45:13;9.33;;;4.60;;
19812;SDS011;10066;48.108;11.448;2023-05-29T07:47:41;7.20;;;4.20;;
19812;SDS011;10066;48.108;11.448;2023-05-29T07:50:08;9.10;;;5.50;;
19812;SDS011;10066;48.108;11.448;2023-05-29T07:52:35;8.00;;;4.70;;
19812;SDS011;10066;48.108;11.448;2023-05-29T07:55:03;7.60;;;4.97;;
19812;SDS011;10066;48.108;11.448;2023-05-29T07:57:30;8.50;;;4.63;;
19812;SDS011;10066;48.108;11.448;2023-05-29T07:59:58;10.23;;;5.30;;
19812;SDS011;10066;48.108;11.448;2023-05-29T08:02:25;7.00;;;5.30;;
19812;SDS011;10066;48.108;11.448;2023-05-29T08:04:53;8.23;;;5.00;;
19812;SDS011;10066;48.108;11.448;2023-05-29T08:07:20;7.47;;;4.90;;
19812;SDS011;10066;48.108;11.448;2023-05-29T08:09:47;10.53;;;5.70;;
19812;SDS011;10066;48.108;11.448;2023-05-29T08:12:14;8.60;;;5.13;;
19812;SDS011;10066;48.108;11.448;2023-05-29T08:14:41;34.87;;;5.63;;
19812;SDS011;10066;48.108;11.448;2023-05-29T08:17:08;10.07;;;5.20;;
19812;SDS011;10066;48.108;11.448;2023-05-29T08:19:35;6.97;;;4.90;;
19812;SDS011;10066;48.108;11.448;2023-05-29T08:22:04;9.37;;;4.97;;
19812;SDS011;10066;48.108;11.448;2023-05-29T08:24:30;6.13;;;4.87;;
19812;SDS011;10066;48.108;11.448;2023-05-29T08:26:57;9.77;;;5.93;;
19812;SDS011;10066;48.108;11.448;2023-05-29T08:29:25;11.23;;;5.17;;
19812;SDS011;10066;48.108;11.448;2023-05-29T08:31:52;7.60;;;4.90;;
19812;SDS011;10066;48.108;11.448;2023-05-29T08:34:18;10.33;;;5.30;;
19812;SDS011;10066;48.108;11.448;2023-05-29T08:36:46;7.27;;;4.73;;
19812;SDS011;10066;48.108;11.448;2023-05-29T08:39:15;9.87;;;5.47;;
19812;SDS011;10066;48.108;11.448;2023-05-29T08:41:44;7.97;;;5.07;;
19812;SDS011;10066;48.108;11.448;2023-05-29T08:44:16;10.97;;;4.57;;
19812;SDS011;10066;48.108;11.448;2023-05-29T08:46:49;10.87;;;5.80;;
19812;SDS011;10066;48.108;11.448;2023-05-29T08:49:20;7.30;;;4.60;;
19812;SDS011;10066;48.108;11.448;2023-05-29T08:51:49;7.10;;;4.53;;
19812;SDS011;10066;48.108;11.448;2023-05-29T08:54:25;7.13;;;4.50;;
19812;SDS011;10066;48.108;11.448;2023-05-29T08:56:52;9.07;;;4.83;;
19812;SDS011;10066;48.108;11.448;2023-05-29T08:59:19;9.03;;;5.00;;
19812;SDS011;10066;48.108;11.448;2023-05-29T09:01:47;7.37;;;4.27;;
19812;SDS011;10066;48.108;11.448;2023-05-29T09:04:14;7.13;;;4.50;;
19812;SDS011;10066;48.108;11.448;2023-05-29T09:06:41;8.30;;;4.37;;
19812;SDS011;10066;48.108;11.448;2023-05-29T09:09:11;7.90;;;4.07;;
19812;SDS011;10066;48.108;11.448;2023-05-29T09:11:40;6.37;;;4.27;;
19812;SDS011;10066;48.108;11.448;2023-05-29T09:14:10;10.73;;;4.50;;
19812;SDS011;10066;48.108;11.448;2023-05-29T09:16:58;9.37;;;4.40;;
19812;SDS011;10066;48.108;11.448;2023-05-29T09:19:25;9.60;;;4.40;;
19812;SDS011;10066;48.108;11.448;2023-05-29T09:21:56;5.83;;;3.90;;
19812;SDS011;10066;48.108;11.448;2023-05-29T09:24:27;9.73;;;4.70;;
19812;SDS011;10066;48.108;11.448;2023-05-29T09:26:56;7.97;;;4.60;;
19812;SDS011;10066;48.108;11.448;2023-05-29T09:29:24;6.47;;;4.50;;
19812;SDS011;10066;48.108;11.448;2023-05-29T09:31:51;7.50;;;4.50;;
19812;SDS011;10066;48.108;11.448;2023-05-29T09:34:18;9.33;;;4.80;;
19812;SDS011;10066;48.108;11.448;2023-05-29T09:36:48;7.23;;;4.53;;
19812;SDS011;10066;48.108;11.448;2023-05-29T09:39:16;6.70;;;3.83;;
19812;SDS011;10066;48.108;11.448;2023-05-29T09:41:43;9.37;;;4.40;;
19812;SDS011;10066;48.108;11.448;2023-05-29T09:44:24;6.43;;;3.93;;
19812;SDS011;10066;48.108;11.448;2023-05-29T09:46:56;7.57;;;3.87;;
19812;SDS011;10066;48.108;11.448;2023-05-29T09:49:24;7.73;;;4.17;;
19812;SDS011;10066;48.108;11.448;2023-05-29T09:51:53;8.23;;;4.10;;
19812;SDS011;10066;48.108;11.448;2023-05-29T09:54:20;5.67;;;4.33;;
19812;SDS011;10066;48.108;11.448;2023-05-29T09:56:47;8.93;;;3.70;;
19812;SDS011;10066;48.108;11.448;2023-05-29T09:59:17;8.57;;;4.20;;
19812;SDS011;10066;48.108;11.448;2023-05-29T10:01:46;5.30;;;3.40;;
19812;SDS011;10066;48.108;11.448;2023-05-29T10:04:13;6.00;;;3.73;;
19812;SDS011;10066;48.108;11.448;2023-05-29T10:06:41;7.20;;;3.50;;
19812;SDS011;10066;48.108;11.448;2023-05-29T10:09:14;7.13;;;3.80;;
19812;SDS011;10066;48.108;11.448;2023-05-29T10:11:44;6.43;;;3.63;;
19812;SDS011;10066;48.108;11.448;2023-05-29T10:14:14;7.83;;;3.50;;
19812;SDS011;10066;48.108;11.448;2023-05-29T10:16:46;7.00;;;3.67;;
19812;SDS011;10066;48.108;11.448;2023-05-29T10:19:18;7.97;;;3.83;;
19812;SDS011;10066;48.108;11.448;2023-05-29T10:21:50;7.37;;;3.53;;
19812;SDS011;10066;48.108;11.448;2023-05-29T10:24:20;6.17;;;3.33;;
19812;SDS011;10066;48.108;11.448;2023-05-29T10:26:49;7.60;;;3.80;;
19812;SDS011;10066;48.108;11.448;2023-05-29T10:29:19;5.40;;;3.47;;
19812;SDS011;10066;48.108;11.448;2023-05-29T10:31:58;7.30;;;3.60;;
19812;SDS011;10066;48.108;11.448;2023-05-29T10:34:33;5.67;;;3.70;;
19812;SDS011;10066;48.108;11.448;2023-05-29T10:37:08;6.67;;;3.97;;
19812;SDS011;10066;48.108;11.448;2023-05-29T10:39:44;5.93;;;3.60;;
19812;SDS011;10066;48.108;11.448;2023-05-29T10:45:11;8.73;;;3.90;;
19812;SDS011;10066;48.108;11.448;2023-05-29T10:51:08;5.37;;;3.70;;
19812;SDS011;10066;48.108;11.448;2023-05-29T10:53:49;5.43;;;3.73;;
19812;SDS011;10066;48.108;11.448;2023-05-29T10:56:20;6.07;;;3.83;;
19812;SDS011;10066;48.108;11.448;2023-05-29T10:58:51;5.47;;;3.50;;
19812;SDS011;10066;48.108;11.448;2023-05-29T11:01:22;4.83;;;3.40;;
19812;SDS011;10066;48.108;11.448;2023-05-29T11:03:50;6.60;;;3.70;;
19812;SDS011;10066;48.108;11.448;2023-05-29T11:06:19;5.07;;;3.47;;
19812;SDS011;10066;48.108;11.448;2023-05-29T11:08:53;6.47;;;3.50;;
19812;SDS011;10066;48.108;11.448;2023-05-29T11:11:31;7.63;;;3.70;;
19812;SDS011;10066;48.108;11.448;2023-05-29T11:14:01;5.00;;;3.30;;
19812;SDS011;10066;48.108;11.448;2023-05-29T11:16:46;6.97;;;3.60;;
19812;SDS011;10066;48.108;11.448;2023-05-29T11:19:13;7.53;;;3.30;;
19812;SDS011;10066;48.108;11.448;2023-05-29T11:21:46;5.60;;;3.60;;
19812;SDS011;10066;48.108;11.448;2023-05-29T11:24:24;6.73;;;3.60;;
19812;SDS011;10066;48.108;11.448;2023-05-29T11:26:55;5.30;;;3.07;;
19812;SDS011;10066;48.108;11.448;2023-05-29T11:29:23;7.30;;;3.40;;
19812;SDS011;10066;48.108;11.448;2023-05-29T11:31:58;6.53;;;3.40;;
19812;SDS011;10066;48.108;11.448;2023-05-29T11:34:28;25.67;;;3.67;;
19812;SDS011;10066;48.108;11.448;2023-05-29T11:36:56;4.53;;;2.80;;
19812;SDS011;10066;48.108;11.448;2023-05-29T11:39:23;7.23;;;3.40;;
19812;SDS011;10066;48.108;11.448;2023-05-29T11:41:52;5.57;;;3.10;;
19812;SDS011;10066;48.108;11.448;2023-05-29T11:44:20;5.23;;;3.37;;
19812;SDS011;10066;48.108;11.448;2023-05-29T11:47:02;5.00;;;3.17;;
19812;SDS011;10066;48.108;11.448;2023-05-29T11:49:29;5.97;;;3.57;;
19812;SDS011;10066;48.108;11.448;2023-05-29T11:52:05;8.00;;;3.70;;
19812;SDS011;10066;48.108;11.448;2023-05-29T11:54:33;5.27;;;3.50;;
19812;SDS011;10066;48.108;11.448;2023-05-29T11:57:00;5.87;;;3.70;;
19812;SDS011;10066;48.108;11.448;2023-05-29T11:59:28;4.70;;;3.33;;
19812;SDS011;10066;48.108;11.448;2023-05-29T12:01:55;4.83;;;3.40;;
19812;SDS011;10066;48.108;11.448;2023-05-29T12:04:24;7.00;;;3.67;;
19812;SDS011;10066;48.108;11.448;2023-05-29T12:06:51;5.93;;;3.00;;
19812;SDS011;10066;48.108;11.448;2023-05-29T12:09:25;5.50;;;3.47;;
19812;SDS011;10066;48.108;11.448;2023-05-29T12:11:54;5.50;;;3.60;;
19812;SDS011;10066;48.108;11.448;2023-05-29T12:14:28;5.73;;;3.10;;
19812;SDS011;10066;48.108;11.448;2023-05-29T12:16:55;5.07;;;2.77;;
19812;SDS011;10066;48.108;11.448;2023-05-29T12:19:24;6.83;;;3.43;;
19812;SDS011;10066;48.108;11.448;2023-05-29T12:21:51;6.07;;;3.63;;
19812;SDS011;10066;48.108;11.448;2023-05-29T12:24:18;5.67;;;3.50;;
19812;SDS011;10066;48.108;11.448;2023-05-29T12:26:45;6.03;;;3.33;;
19812;SDS011;10066;48.108;11.448;2023-05-29T12:29:13;8.43;;;3.67;;
19812;SDS011;10066;48.108;11.448;2023-05-29T12:31:39;4.80;;;3.40;;
19812;SDS011;10066;48.108;11.448;2023-05-29T12:34:07;5.73;;;3.70;;
19812;SDS011;10066;48.108;11.448;2023-05-29T12:36:39;5.57;;;3.70;;
19812;SDS011;10066;48.108;11.448;2023-05-29T12:39:07;4.33;;;3.70;;
19812;SDS011;10066;48.108;11.448;2023-05-29T12:41:35;7.00;;;3.20;;
19812;SDS011;10066;48.108;11.448;2023-05-29T12:44:04;5.77;;;3.20;;
19812;SDS011;10066;48.108;11.448;2023-05-29T12:46:35;6.27;;;3.30;;
19812;SDS011;10066;48.108;11.448;2023-05-29T12:49:11;6.13;;;3.50;;
19812;SDS011;10066;48.108;11.448;2023-05-29T12:51:41;5.13;;;3.27;;
19812;SDS011;10066;48.108;11.448;2023-05-29T12:54:09;6.70;;;3.53;;
19812;SDS011;10066;48.108;11.448;2023-05-29T12:56:36;5.60;;;3.63;;
19812;SDS011;10066;48.108;11.448;2023-05-29T12:59:05;4.30;;;2.77;;
19812;SDS011;10066;48.108;11.448;2023-05-29T13:01:32;5.73;;;3.10;;
19812;SDS011;10066;48.108;11.448;2023-05-29T13:03:59;4.83;;;3.20;;
19812;SDS011;10066;48.108;11.448;2023-05-29T13:06:26;5.80;;;3.43;;
19812;SDS011;10066;48.108;11.448;2023-05-29T13:08:54;5.53;;;2.77;;
19812;SDS011;10066;48.108;11.448;2023-05-29T13:11:21;5.73;;;3.20;;
19812;SDS011;10066;48.108;11.448;2023-05-29T13:13:48;4.70;;;3.00;;
19812;SDS011;10066;48.108;11.448;2023-05-29T13:16:15;4.83;;;3.23;;
19812;SDS011;10066;48.108;11.448;2023-05-29T13:18:43;4.50;;;3.43;;
19812;SDS011;10066;48.108;11.448;2023-05-29T13:21:10;5.50;;;2.90;;
19812;SDS011;10066;48.108;11.448;2023-05-29T13:23:37;4.90;;;3.20;;
19812;SDS011;10066;48.108;11.448;2023-05-29T13:26:06;7.20;;;3.53;;
19812;SDS011;10066;48.108;11.448;2023-05-29T13:28:33;5.67;;;3.30;;
19812;SDS011;10066;48.108;11.448;2023-05-29T13:31:00;4.40;;;3.10;;
19812;SDS011;10066;48.108;11.448;2023-05-29T13:33:27;5.13;;;3.10;;
19812;SDS011;10066;48.108;11.448;2023-05-29T13:35:54;7.73;;;3.20;;
19812;SDS011;10066;48.108;11.448;2023-05-29T13:38:21;6.73;;;3.30;;
19812;SDS011;10066;48.108;11.448;2023-05-29T13:40:47;5.67;;;3.33;;
19812;SDS011;10066;48.108;11.448;2023-05-29T13:43:16;6.07;;;3.27;;
19812;SDS011;10066;48.108;11.448;2023-05-29T13:45:42;6.07;;;3.40;;
19812;SDS011;10066;48.108;11.448;2023-05-29T13:48:09;6.03;;;2.83;;
19812;SDS011;10066;48.108;11.448;2023-05-29T13:50:36;3.93;;;2.70;;
19812;SDS011;10066;48.108;11.448;2023-05-29T13:53:03;5.93;;;2.90;;
19812;SDS011;10066;48.108;11.448;2023-05-29T13:55:30;5.07;;;3.07;;
19812;SDS011;10066;48.108;11.448;2023-05-29T13:57:57;3.80;;;2.47;;
19812;SDS011;10066;48.108;11.448;2023-05-29T14:00:25;5.83;;;3.03;;
19812;SDS011;10066;48.108;11.448;2023-05-29T14:02:52;3.30;;;2.27;;
19812;SDS011;10066;48.108;11.448;2023-05-29T14:05:19;4.93;;;3.30;;
19812;SDS011;10066;48.108;11.448;2023-05-29T14:07:46;6.00;;;2.90;;
19812;SDS011;10066;48.108;11.448;2023-05-29T14:10:13;5.53;;;3.33;;
19812;SDS011;10066;48.108;11.448;2023-05-29T14:12:40;7.27;;;3.33;;
19812;SDS011;10066;48.108;11.448;2023-05-29T14:15:08;4.70;;;2.97;;
19812;SDS011;10066;48.108;11.448;2023-05-29T14:17:37;5.07;;;3.10;;
19812;SDS011;10066;48.108;11.448;2023-05-29T14:20:04;5.70;;;3.30;;
19812;SDS011;10066;48.108;11.448;2023-05-29T14:22:33;7.97;;;3.17;;
19812;SDS011;10066;48.108;11.448;2023-05-29T14:25:02;4.33;;;2.97;;
19812;SDS011;10066;48.108;11.448;2023-05-29T14:27:29;6.70;;;3.67;;
19812;SDS011;10066;48.108;11.448;2023-05-29T14:29:56;5.40;;;3.23;;
19812;SDS011;10066;48.108;11.448;2023-05-29T14:32:23;8.07;;;3.10;;
19812;SDS011;10066;48.108;11.448;2023-05-29T14:34:51;4.90;;;3.53;;
19812;SDS011;10066;48.108;11.448;2023-05-29T14:37:18;4.40;;;2.80;;
19812;SDS011;10066;48.108;11.448;2023-05-29T14:39:45;7.60;;;3.37;;
19812;SDS011;10066;48.108;11.448;2023-05-29T14:42:12;6.03;;;3.20;;
19812;SDS011;10066;48.108;11.448;2023-05-29T14:44:40;8.20;;;3.30;;
19812;SDS011;10066;48.108;11.448;2023-05-29T14:47:07;5.17;;;3.60;;